Time;durP1;ratioP1;P1;durP2;ratioP2;P2;SDS_P1;SDS_P2;PMS_P1;PMS_P2;Temp;Humidity;BMP_temperature;BMP_pressure;BME280_temperature;BME280_humidity;BME280_pressure;Samples;Min_cycle;Max_cycle;Signal;HPM_P1;HPM_P2
2022/08/12 00:45:07;;;;;;;6.82;5.88;;;20.00;99.90;;;;;;5020287;28;20734;-79
2022/08/12 00:47:34;;;;;;;7.53;5.97;;;20.00;99.90;;;;;;5020259;28;20229;-76
2022/08/12 00:50:03;;;;;;;7.80;6.70;;;19.90;99.90;;;;;;5016449;28;20268;-77
2022/08/12 00:52:32;;;;;;;8.23;5.95;;;19.90;99.90;;;;;;5014648;28;20264;-78
2022/08/12 00:55:00;;;;;;;7.88;6.05;;;19.90;99.90;;;;;;5021969;28;20708;-77
2022/08/12 00:57:36;;;;;;;10.00;6.47;;;19.90;99.90;;;;;;5018378;28;20621;-80
2022/08/12 01:00:12;;;;;;;8.38;6.18;;;19.80;99.90;;;;;;5017053;28;20210;-77
2022/08/12 01:02:41;;;;;;;8.73;5.93;;;19.80;99.90;;;;;;5015445;28;20253;-78
2022/08/12 01:13:39;;;;;;;11.77;5.95;;;19.60;99.90;;;;;;5016746;28;20222;-76
2022/08/12 01:16:07;;;;;;;9.60;5.95;;;19.60;99.90;;;;;;5019076;28;20644;-78
2022/08/12 01:18:37;;;;;;;7.35;6.28;;;19.60;99.90;;;;;;5016689;28;20227;-77
2022/08/12 01:21:22;;;;;;;8.70;5.78;;;19.50;99.90;;;;;;5023052;28;20206;-77
2022/08/12 01:24:16;;;;;;;8.80;5.60;;;19.50;99.90;;;;;;5016569;28;20210;-76
2022/08/12 01:26:57;;;;;;;10.35;5.93;;;19.50;99.90;;;;;;5015142;28;20209;-78
2022/08/12 01:29:27;;;;;;;10.10;5.85;;;19.40;99.90;;;;;;5019341;28;20619;-77
2022/08/12 01:32:03;;;;;;;8.77;6.10;;;19.40;99.90;;;;;;5019382;28;20220;-77
2022/08/12 01:34:37;;;;;;;7.43;6.07;;;19.30;99.90;;;;;;5017411;28;20265;-77
2022/08/12 01:37:08;;;;;;;8.25;5.70;;;19.30;99.90;;;;;;5019450;28;20214;-79
2022/08/12 01:39:53;;;;;;;8.37;5.83;;;19.30;99.90;;;;;;5019159;28;20218;-77
2022/08/12 01:42:50;;;;;;;11.17;6.20;;;19.30;99.90;;;;;;5015995;28;20226;-77
2022/08/12 01:45:23;;;;;;;10.67;6.53;;;19.30;99.90;;;;;;5019254;28;20201;-77
2022/08/12 01:48:13;;;;;;;6.60;5.67;;;19.20;99.90;;;;;;5024729;28;20233;-77
2022/08/12 01:51:02;;;;;;;9.65;6.32;;;19.20;99.90;;;;;;5015237;28;20207;-78
2022/08/12 01:54:03;;;;;;;9.17;6.40;;;19.10;99.90;;;;;;5018633;28;20214;-77
2022/08/12 01:57:09;;;;;;;8.95;6.38;;;19.10;99.90;;;;;;5037839;28;20213;-76
2022/08/12 01:59:57;;;;;;;8.23;6.00;;;19.10;99.90;;;;;;5018477;28;21057;-76
2022/08/12 02:02:46;;;;;;;11.23;6.70;;;19.00;99.90;;;;;;5025170;28;20238;-77
2022/08/12 02:11:34;;;;;;;7.50;6.50;;;18.90;99.90;;;;;;5016021;28;20214;-77
2022/08/12 02:14:14;;;;;;;10.03;6.57;;;18.90;99.90;;;;;;5018668;28;20276;-77
2022/08/12 02:17:04;;;;;;;8.83;6.60;;;18.80;99.90;;;;;;5021504;28;20240;-79
2022/08/12 02:20:15;;;;;;;11.23;7.10;;;18.80;99.90;;;;;;5022476;28;20595;-79
2022/08/12 02:22:44;;;;;;;9.43;7.43;;;18.70;99.90;;;;;;5017268;28;20238;-77
2022/08/12 02:25:35;;;;;;;9.93;6.43;;;18.70;99.90;;;;;;5018887;28;20264;-77
2022/08/12 02:28:03;;;;;;;8.50;6.63;;;18.70;99.90;;;;;;5027797;28;20205;-77
2022/08/12 02:30:36;;;;;;;7.73;6.40;;;18.60;99.90;;;;;;5021066;28;20215;-79
2022/08/12 02:33:09;;;;;;;9.77;6.97;;;18.60;99.90;;;;;;5016107;28;20257;-77
2022/08/12 02:35:38;;;;;;;8.97;7.60;;;18.60;99.90;;;;;;5019144;28;20225;-76
2022/08/12 02:38:09;;;;;;;9.90;7.50;;;18.60;99.90;;;;;;5022884;28;20221;-77
2022/08/12 02:40:41;;;;;;;10.30;6.77;;;18.60;99.90;;;;;;5016234;28;20585;-78
2022/08/12 02:43:20;;;;;;;9.53;6.70;;;18.50;99.90;;;;;;5015615;28;20309;-77
2022/08/12 02:46:03;;;;;;;9.70;7.90;;;18.50;99.90;;;;;;5020111;28;20224;-77
2022/08/12 02:48:33;;;;;;;12.47;7.20;;;18.50;99.90;;;;;;5023399;28;20226;-78
2022/08/12 02:51:05;;;;;;;10.03;7.00;;;18.50;99.90;;;;;;5022321;28;20268;-78
2022/08/12 02:53:33;;;;;;;7.80;7.00;;;18.40;99.90;;;;;;5010959;28;20210;-77
2022/08/12 02:56:04;;;;;;;8.10;6.63;;;18.40;99.90;;;;;;5016294;28;20632;-77
2022/08/12 02:58:33;;;;;;;12.77;7.27;;;18.40;99.90;;;;;;5018842;28;20241;-78
2022/08/12 03:01:03;;;;;;;10.90;7.57;;;18.30;99.90;;;;;;5014973;28;20211;-77
2022/08/12 03:03:33;;;;;;;9.90;7.30;;;18.30;99.90;;;;;;5019224;28;20296;-76
2022/08/12 03:06:16;;;;;;;10.87;6.87;;;18.30;99.90;;;;;;5026190;28;20202;-77
2022/08/12 03:08:46;;;;;;;8.70;7.00;;;18.20;99.90;;;;;;5022752;28;20206;-78
2022/08/12 03:11:24;;;;;;;9.07;7.20;;;18.20;99.90;;;;;;5022955;28;20210;-77
2022/08/12 03:13:58;;;;;;;9.27;7.67;;;18.10;99.90;;;;;;5018341;28;20241;-77
2022/08/12 03:16:29;;;;;;;9.83;7.37;;;18.10;99.90;;;;;;5022997;28;20264;-78
2022/08/12 03:18:59;;;;;;;11.50;7.77;;;18.10;99.90;;;;;;5020643;28;20234;-77
2022/08/12 03:21:26;;;;;;;9.90;8.13;;;18.00;99.90;;;;;;5017003;28;20213;-77
2022/08/12 03:24:17;;;;;;;9.57;8.57;;;18.00;99.90;;;;;;5019106;28;20240;-77
2022/08/12 03:26:46;;;;;;;8.33;7.13;;;18.00;99.90;;;;;;5024220;28;20212;-78
2022/08/12 03:29:15;;;;;;;9.97;7.97;;;18.00;99.90;;;;;;5027430;28;20284;-77
2022/08/12 03:31:42;;;;;;;9.83;7.63;;;17.90;99.90;;;;;;5018197;28;20246;-77
2022/08/12 03:34:13;;;;;;;11.80;7.50;;;17.90;99.90;;;;;;5018014;28;20741;-77
2022/08/12 03:36:41;;;;;;;10.63;8.50;;;17.90;99.90;;;;;;5018083;28;20257;-76
2022/08/12 03:41:55;;;;;;;17.07;9.60;;;17.80;99.90;;;;;;5019036;28;20265;-79
2022/08/12 04:01:51;;;;;;;9.70;8.03;;;17.50;99.90;;;;;;5018214;28;20594;-78
2022/08/12 04:04:22;;;;;;;11.47;7.97;;;17.50;99.90;;;;;;5024089;28;20209;-79
2022/08/12 04:06:49;;;;;;;12.03;7.73;;;17.50;99.90;;;;;;5025708;28;20301;-78
2022/08/12 04:09:20;;;;;;;12.07;8.57;;;17.50;99.90;;;;;;5025331;28;20285;-77
2022/08/12 04:14:34;;;;;;;12.10;8.60;;;17.40;99.90;;;;;;5020267;28;20280;-80
2022/08/12 04:17:02;;;;;;;9.60;8.00;;;17.50;99.90;;;;;;5018911;28;20209;-76
2022/08/12 04:19:29;;;;;;;10.47;7.90;;;17.40;99.90;;;;;;5018573;28;20206;-77
2022/08/12 04:21:56;;;;;;;15.40;9.70;;;17.40;99.90;;;;;;5020217;28;20214;-76
2022/08/12 04:24:33;;;;;;;14.23;9.17;;;17.40;99.90;;;;;;5018612;28;20576;-76
2022/08/12 04:27:04;;;;;;;10.77;8.63;;;17.30;99.90;;;;;;5026656;28;20205;-76
2022/08/12 04:29:33;;;;;;;13.17;8.60;;;17.30;99.90;;;;;;5021697;28;20201;-76
2022/08/12 04:32:19;;;;;;;11.97;9.20;;;17.30;99.90;;;;;;5019690;28;20557;-79
2022/08/12 04:34:46;;;;;;;13.10;9.23;;;17.30;99.90;;;;;;5019940;28;20214;-79
2022/08/12 04:37:15;;;;;;;11.83;9.00;;;17.30;99.90;;;;;;5021641;28;20320;-77
2022/08/12 04:39:43;;;;;;;10.30;8.20;;;17.30;99.90;;;;;;5018315;28;20211;-77
2022/08/12 04:42:10;;;;;;;14.03;8.83;;;17.30;99.90;;;;;;5022371;28;20193;-76
2022/08/12 04:44:37;;;;;;;10.40;8.47;;;17.30;99.90;;;;;;5024382;28;20218;-76
2022/08/12 04:47:04;;;;;;;10.87;9.17;;;17.30;99.90;;;;;;5022734;28;20285;-78
2022/08/12 04:49:33;;;;;;;13.30;8.90;;;17.40;99.90;;;;;;5016520;28;20219;-76
2022/08/12 04:52:01;;;;;;;11.13;8.43;;;17.40;99.90;;;;;;5019855;28;20210;-77
2022/08/12 04:54:29;;;;;;;11.53;9.10;;;17.40;99.90;;;;;;5017281;28;20222;-77
2022/08/12 04:56:56;;;;;;;15.17;10.20;;;17.40;99.90;;;;;;5019884;28;20209;-79
2022/08/12 04:59:34;;;;;;;12.60;9.00;;;17.50;99.90;;;;;;5016967;28;20308;-78
2022/08/12 05:02:15;;;;;;;14.00;9.40;;;17.50;99.90;;;;;;5016918;28;20234;-78
2022/08/12 05:04:49;;;;;;;11.73;8.83;;;17.50;99.90;;;;;;5014086;28;20238;-77
2022/08/12 05:07:16;;;;;;;14.80;9.50;;;17.50;99.90;;;;;;5016912;28;20573;-77
2022/08/12 05:09:43;;;;;;;10.20;8.57;;;17.50;99.90;;;;;;5019773;28;20205;-77
2022/08/12 05:12:35;;;;;;;13.17;9.30;;;17.50;99.90;;;;;;5018035;28;20224;-78
2022/08/12 05:15:04;;;;;;;11.57;8.53;;;17.60;99.90;;;;;;5017253;28;20221;-78
2022/08/12 05:17:51;;;;;;;12.67;9.10;;;17.60;99.90;;;;;;5020072;28;20670;-78
2022/08/12 05:20:19;;;;;;;13.73;10.47;;;17.60;99.90;;;;;;5018394;28;20241;-78
2022/08/12 05:22:46;;;;;;;12.10;10.13;;;17.70;99.90;;;;;;5026213;28;20752;-77
2022/08/12 05:25:14;;;;;;;12.60;10.53;;;17.70;99.90;;;;;;5019464;28;20673;-78
2022/08/12 05:27:44;;;;;;;15.80;10.83;;;17.70;99.90;;;;;;5021290;28;20557;-78
2022/08/12 05:30:24;;;;;;;12.77;8.77;;;17.80;99.90;;;;;;5023095;28;20225;-78
2022/08/12 05:32:54;;;;;;;21.93;10.80;;;17.80;99.90;;;;;;5025453;28;20299;-78
2022/08/12 05:35:26;;;;;;;19.33;10.17;;;17.80;99.90;;;;;;5027624;28;20209;-77
2022/08/12 05:38:54;;;;;;;15.23;10.13;;;17.90;99.90;;;;;;5027112;28;20244;-78
2022/08/12 05:40:40;;;;;;;14.53;9.57;;;17.90;99.90;;;;;;5026978;28;20214;-78
2022/08/12 05:43:07;;;;;;;13.50;10.47;;;18.00;99.90;;;;;;5018310;28;20337;-78
2022/08/12 05:45:34;;;;;;;16.43;11.00;;;18.10;99.90;;;;;;5023859;28;20261;-77
2022/08/12 05:48:05;;;;;;;13.63;10.07;;;18.10;99.90;;;;;;5019771;28;20226;-78
2022/08/12 05:50:34;;;;;;;12.73;9.87;;;18.20;99.90;;;;;;5024600;28;20210;-78
2022/08/12 05:53:01;;;;;;;15.00;10.90;;;18.30;99.90;;;;;;5018569;28;20347;-78
2022/08/12 05:55:30;;;;;;;13.43;9.50;;;18.30;99.90;;;;;;5023878;28;20210;-78
2022/08/12 05:57:57;;;;;;;13.70;9.50;;;18.40;99.90;;;;;;5015374;28;20265;-78
2022/08/12 06:00:25;;;;;;;12.30;10.50;;;18.50;99.90;;;;;;5018559;28;20225;-78
2022/08/12 06:02:59;;;;;;;15.20;10.77;;;18.60;99.90;;;;;;5017110;28;20242;-78
2022/08/12 06:05:33;;;;;;;15.48;11.25;;;18.60;99.90;;;;;;5022663;28;20218;-79
2022/08/12 06:08:20;;;;;;;14.77;10.15;;;18.80;99.90;;;;;;5019908;28;20733;-79
2022/08/12 06:10:48;;;;;;;12.02;9.63;;;19.60;99.90;;;;;;5024094;28;20210;-78
2022/08/12 06:13:16;;;;;;;10.75;8.82;;;20.80;99.90;;;;;;5018734;28;20209;-77
2022/08/12 06:16:04;;;;;;;9.63;8.48;;;22.10;99.90;;;;;;5022340;28;20209;-78
2022/08/12 06:18:31;;;;;;;14.13;7.95;;;23.50;99.90;;;;;;5020196;28;20257;-78
2022/08/12 06:20:58;;;;;;;9.18;8.18;;;24.70;99.90;;;;;;5029013;28;20263;-78
2022/08/12 06:23:28;;;;;;;9.43;7.93;;;25.70;99.90;;;;;;5020624;28;20234;-79
2022/08/12 06:25:56;;;;;;;10.20;8.23;;;26.70;99.90;;;;;;5020408;28;20626;-79
2022/08/12 06:28:24;;;;;;;8.57;7.47;;;27.50;99.90;;;;;;5024936;28;20222;-77
2022/08/12 06:30:52;;;;;;;10.18;6.97;;;28.30;99.90;;;;;;5029546;28;20206;-78
2022/08/12 06:33:42;;;;;;;11.32;8.23;;;28.90;99.90;;;;;;5023399;28;20323;-77
2022/08/12 06:36:29;;;;;;;12.38;8.30;;;29.50;99.90;;;;;;5022891;28;20730;-80
2022/08/12 06:39:00;;;;;;;9.88;7.55;;;30.00;99.90;;;;;;5022058;28;20209;-79
2022/08/12 06:44:32;;;;;;;10.07;8.10;;;31.10;99.90;;;;;;5019820;28;20845;-78
2022/08/12 06:46:59;;;;;;;9.60;7.78;;;31.70;99.90;;;;;;5021738;28;20654;-78
2022/08/12 06:49:27;;;;;;;12.48;8.43;;;32.10;98.00;;;;;;5019377;28;20209;-78
2022/08/12 06:51:54;;;;;;;8.60;7.57;;;32.10;96.50;;;;;;5020464;28;20215;-79
2022/08/12 06:54:24;;;;;;;8.90;7.43;;;32.30;95.30;;;;;;5022230;28;20267;-78
2022/08/12 06:57:00;;;;;;;8.93;7.70;;;32.40;94.10;;;;;;5028486;28;20221;-80
2022/08/12 06:59:49;;;;;;;9.65;6.93;;;32.60;93.40;;;;;;5019585;28;20332;-79
2022/08/12 07:02:19;;;;;;;10.32;8.77;;;32.90;92.50;;;;;;5022320;28;20276;-79
2022/08/12 07:04:46;;;;;;;10.27;8.07;;;33.20;91.70;;;;;;5023493;28;20283;-80
2022/08/12 07:07:13;;;;;;;9.77;7.60;;;33.40;90.90;;;;;;5022108;28;20212;-80
2022/08/12 07:09:41;;;;;;;8.95;8.05;;;33.50;90.40;;;;;;5022639;28;20271;-79
2022/08/12 07:12:28;;;;;;;8.88;7.63;;;33.60;90.10;;;;;;5021754;28;20734;-78
2022/08/12 07:14:56;;;;;;;12.68;7.78;;;33.70;88.90;;;;;;5019203;28;20218;-79
2022/08/12 07:17:24;;;;;;;9.38;7.70;;;33.90;87.90;;;;;;5022054;28;20233;-78
2022/08/12 07:19:52;;;;;;;9.88;7.45;;;34.10;87.40;;;;;;5021038;28;20210;-78
2022/08/12 07:22:21;;;;;;;11.23;8.32;;;34.40;86.70;;;;;;5030689;28;20209;-78
2022/08/12 07:25:29;;;;;;;9.13;7.50;;;34.50;84.80;;;;;;5028255;28;20229;-77
2022/08/12 07:27:42;;;;;;;9.40;7.35;;;34.70;83.90;;;;;;5022210;28;20217;-78
2022/08/12 07:30:09;;;;;;;9.60;8.05;;;34.80;82.40;;;;;;5023291;28;20221;-79
2022/08/12 07:32:36;;;;;;;12.02;8.10;;;34.90;82.60;;;;;;5019279;28;20277;-79
2022/08/12 07:35:03;;;;;;;10.45;8.25;;;35.10;81.30;;;;;;5019758;28;20260;-76
2022/08/12 07:37:31;;;;;;;8.40;7.60;;;35.20;81.00;;;;;;5020107;28;20267;-77
2022/08/12 07:39:57;;;;;;;9.68;7.35;;;35.10;80.20;;;;;;5022956;28;20264;-81
2022/08/12 07:42:28;;;;;;;8.93;8.02;;;35.10;79.80;;;;;;5020980;28;20209;-78
2022/08/12 07:44:55;;;;;;;8.80;7.38;;;35.20;79.70;;;;;;5019270;28;20237;-77
2022/08/12 07:47:23;;;;;;;8.07;7.32;;;35.30;79.30;;;;;;5020067;28;20217;-78
2022/08/12 07:49:50;;;;;;;13.25;7.65;;;35.30;78.50;;;;;;5019477;28;20221;-77
2022/08/12 07:52:40;;;;;;;8.88;7.68;;;35.30;78.10;;;;;;5020082;28;20201;-77
2022/08/12 07:55:09;;;;;;;9.07;6.93;;;35.30;77.20;;;;;;5019381;28;20209;-80
2022/08/12 07:57:58;;;;;;;14.63;7.68;;;34.90;76.50;;;;;;5022702;28;20210;-75
2022/08/12 08:00:30;;;;;;;10.20;7.00;;;34.90;77.80;;;;;;5023553;28;20603;-78
2022/08/12 08:02:57;;;;;;;8.27;7.45;;;34.80;77.20;;;;;;5021372;28;20638;-77
2022/08/12 08:05:28;;;;;;;12.57;6.85;;;34.50;77.70;;;;;;5021594;28;20283;-77
2022/08/12 08:08:01;;;;;;;7.53;6.68;;;34.60;77.20;;;;;;5017557;28;20213;-78
2022/08/12 08:10:29;;;;;;;10.73;7.35;;;34.40;76.90;;;;;;5022089;28;20213;-77
2022/08/12 08:12:58;;;;;;;7.18;5.85;;;34.50;76.50;;;;;;5017814;28;20209;-76
2022/08/12 08:15:29;;;;;;;8.15;6.95;;;34.60;76.80;;;;;;5020840;28;20264;-79
2022/08/12 08:18:17;;;;;;;7.32;5.80;;;34.80;77.40;;;;;;5019348;28;20694;-80
2022/08/12 08:20:55;;;;;;;7.30;6.18;;;35.00;76.70;;;;;;5017260;28;20222;-77
2022/08/12 08:24:13;;;;;;;9.95;6.60;;;35.20;77.80;;;;;;5027465;28;20275;-78
2022/08/12 08:26:14;;;;;;;7.13;6.43;;;35.40;76.50;;;;;;5019671;28;20260;-78
2022/08/12 08:28:42;;;;;;;8.05;5.90;;;35.40;76.30;;;;;;5025643;28;20213;-78
2022/08/12 08:31:11;;;;;;;11.00;7.50;;;35.40;75.90;;;;;;5023007;28;20351;-76
2022/08/12 08:33:40;;;;;;;8.85;6.13;;;35.60;74.60;;;;;;5021874;28;20845;-79
2022/08/12 08:36:27;;;;;;;8.70;5.90;;;35.80;73.30;;;;;;5027577;28;20204;-79
2022/08/12 08:38:55;;;;;;;7.57;6.28;;;36.10;72.50;;;;;;5026355;28;20216;-80
2022/08/12 08:44:36;;;;;;;7.05;5.28;;;36.40;73.90;;;;;;5026696;28;20322;-81
2022/08/12 08:47:09;;;;;;;9.10;5.70;;;36.50;75.40;;;;;;5025914;28;20218;-79
2022/08/12 08:49:36;;;;;;;11.45;6.65;;;36.40;72.50;;;;;;5021041;28;20266;-78
2022/08/12 08:52:08;;;;;;;11.80;5.97;;;36.20;76.20;;;;;;5023052;28;20206;-79
2022/08/12 08:54:36;;;;;;;7.03;4.80;;;36.20;79.30;;;;;;5021616;28;20261;-82
2022/08/12 08:57:06;;;;;;;6.30;5.03;;;36.20;76.10;;;;;;5021443;28;20244;-82
2022/08/12 08:59:34;;;;;;;6.70;5.28;;;36.30;75.50;;;;;;5015575;28;20229;-81
2022/08/12 09:02:01;;;;;;;6.95;5.38;;;36.10;77.40;;;;;;5016880;28;20220;-79
2022/08/12 09:04:28;;;;;;;7.38;4.80;;;36.00;78.90;;;;;;5020682;28;20226;-80
2022/08/12 09:07:17;;;;;;;6.70;4.13;;;35.90;73.70;;;;;;5018377;28;20209;-77
2022/08/12 09:10:05;;;;;;;8.88;4.30;;;35.90;73.10;;;;;;5021785;28;20591;-79
2022/08/12 09:15:49;;;;;;;7.65;4.03;;;36.10;76.50;;;;;;5022629;28;20202;-79
2022/08/12 09:18:37;;;;;;;7.85;3.90;;;36.10;73.50;;;;;;5020406;28;20224;-79
2022/08/12 09:21:08;;;;;;;10.35;3.65;;;36.10;69.10;;;;;;5023728;28;20303;-79
2022/08/12 09:23:35;;;;;;;6.53;4.30;;;36.10;67.70;;;;;;5021012;28;20239;-80
2022/08/12 09:26:22;;;;;;;4.63;3.78;;;36.10;69.90;;;;;;5017041;28;20315;-79
2022/08/12 09:29:09;;;;;;;5.22;3.83;;;36.10;70.40;;;;;;5019424;28;20220;-79
2022/08/12 09:31:38;;;;;;;5.53;3.65;;;36.10;67.70;;;;;;5019162;28;20747;-79
2022/08/12 09:34:30;;;;;;;8.52;3.40;;;36.00;72.70;;;;;;5024004;28;20277;-79
2022/08/12 09:37:07;;;;;;;9.80;4.28;;;35.70;69.30;;;;;;5022673;28;20279;-80
2022/08/12 09:39:49;;;;;;;4.68;3.30;;;35.70;76.50;;;;;;5019228;28;20292;-79
2022/08/12 09:45:47;;;;;;;4.90;3.28;;;35.50;70.80;;;;;;5016879;28;20241;-80
2022/08/12 09:48:35;;;;;;;5.38;3.58;;;35.20;70.40;;;;;;5017319;28;20309;-80
2022/08/12 09:51:07;;;;;;;6.72;3.55;;;35.10;72.60;;;;;;5008079;28;20306;-80
2022/08/12 09:53:48;;;;;;;6.78;3.30;;;35.10;70.00;;;;;;5018582;28;20673;-81
2022/08/12 09:56:35;;;;;;;5.80;3.08;;;35.10;65.50;;;;;;5016153;28;20292;-80
2022/08/12 09:59:22;;;;;;;7.18;3.45;;;35.00;63.30;;;;;;5018628;28;20631;-79
2022/08/12 10:02:11;;;;;;;5.28;2.90;;;35.00;63.00;;;;;;5022016;28;20229;-79
2022/08/12 10:04:58;;;;;;;7.68;3.28;;;35.00;60.70;;;;;;5019070;28;20336;-80
2022/08/12 10:07:25;;;;;;;5.82;3.35;;;34.90;63.10;;;;;;5022892;28;20210;-78
2022/08/12 10:10:06;;;;;;;4.80;3.15;;;34.80;62.90;;;;;;5017171;28;20212;-79
2022/08/12 10:15:43;;;;;;;2.95;2.65;;;34.70;67.10;;;;;;5018128;28;20203;-79
2022/08/12 10:18:31;;;;;;;5.50;3.28;;;34.70;62.40;;;;;;5028467;28;20312;-79
2022/08/12 10:21:05;;;;;;;5.20;2.70;;;34.70;62.40;;;;;;5019553;28;20324;-81
2022/08/12 10:23:34;;;;;;;5.03;2.53;;;34.70;61.20;;;;;;5016267;28;20263;-79
2022/08/12 10:32:22;;;;;;;6.38;3.00;;;34.60;62.00;;;;;;5015713;28;20309;-79
2022/08/12 10:35:09;;;;;;;3.75;2.92;;;34.60;60.50;;;;;;5015485;28;20333;-78
2022/08/12 10:37:37;;;;;;;5.55;2.47;;;34.50;62.10;;;;;;5018961;28;20676;-79
2022/08/12 10:40:24;;;;;;;2.83;2.60;;;34.40;59.60;;;;;;5022098;28;20670;-79
2022/08/12 10:45:47;;;;;;;4.20;2.80;;;34.30;59.00;;;;;;5016407;28;20639;-80
2022/08/12 10:48:15;;;;;;;6.75;2.58;;;34.20;58.50;;;;;;5016796;28;20230;-78
2022/08/12 10:51:02;;;;;;;3.40;2.70;;;34.20;56.60;;;;;;5014812;28;20214;-79
2022/08/12 10:53:50;;;;;;;2.80;2.60;;;34.10;56.10;;;;;;5018280;28;20626;-80
2022/08/12 10:56:18;;;;;;;3.55;2.63;;;34.00;55.70;;;;;;5016261;28;20206;-77
2022/08/12 10:58:47;;;;;;;3.92;2.83;;;34.10;57.10;;;;;;5018019;28;20710;-78
2022/08/12 11:01:16;;;;;;;8.15;3.05;;;34.00;57.00;;;;;;5015304;28;20678;-80
2022/08/12 11:04:04;;;;;;;3.35;3.05;;;34.00;56.70;;;;;;5020068;28;20277;-77
2022/08/12 11:06:52;;;;;;;3.80;3.05;;;34.00;56.60;;;;;;5018847;28;20206;-79
2022/08/12 11:09:40;;;;;;;5.22;3.30;;;34.00;56.90;;;;;;5022636;28;20213;-79
2022/08/12 11:12:28;;;;;;;5.22;3.42;;;34.20;56.60;;;;;;5020054;28;20207;-78
2022/08/12 11:15:16;;;;;;;5.32;2.85;;;34.10;56.70;;;;;;5018754;28;20218;-78
2022/08/12 11:17:50;;;;;;;5.82;2.75;;;34.20;57.20;;;;;;5019509;28;20226;-77
2022/08/12 11:20:23;;;;;;;3.65;2.60;;;34.20;56.80;;;;;;5022465;28;20212;-79
2022/08/12 11:23:00;;;;;;;4.35;2.97;;;34.30;56.40;;;;;;5029876;28;20260;-78
2022/08/12 11:25:48;;;;;;;3.50;2.70;;;34.30;56.10;;;;;;5020169;28;20242;-80
2022/08/12 11:28:25;;;;;;;5.28;2.97;;;34.30;57.30;;;;;;5023605;28;20681;-78
2022/08/12 11:31:05;;;;;;;3.15;2.42;;;34.30;56.70;;;;;;5025479;28;20926;-76
2022/08/12 11:33:32;;;;;;;4.65;3.20;;;34.30;56.70;;;;;;5021584;28;20225;-77
2022/08/12 11:36:19;;;;;;;5.38;3.40;;;34.40;56.40;;;;;;5021882;28;20289;-76
2022/08/12 11:38:48;;;;;;;6.22;2.80;;;34.40;58.80;;;;;;5025040;28;20225;-76
2022/08/12 11:41:20;;;;;;;4.85;2.90;;;34.50;58.30;;;;;;5019788;28;20245;-78
2022/08/12 11:44:01;;;;;;;4.30;2.97;;;34.50;58.30;;;;;;5018547;28;20297;-78
2022/08/12 11:46:56;;;;;;;4.35;2.70;;;34.50;57.30;;;;;;5022034;28;20314;-78
2022/08/12 11:49:25;;;;;;;4.43;3.00;;;34.60;57.20;;;;;;5017803;28;20301;-78
2022/08/12 11:52:01;;;;;;;6.88;3.20;;;34.60;55.90;;;;;;5018240;28;20206;-77
2022/08/12 11:54:29;;;;;;;3.25;2.95;;;34.60;55.60;;;;;;5021416;28;20198;-80
2022/08/12 11:57:00;;;;;;;4.90;3.00;;;34.60;55.00;;;;;;5020404;28;20237;-75
2022/08/12 11:59:29;;;;;;;3.72;2.85;;;34.40;54.80;;;;;;5020399;28;20308;-77
2022/08/12 12:02:17;;;;;;;3.53;2.80;;;34.40;54.80;;;;;;5020339;28;20683;-77
2022/08/12 12:04:50;;;;;;;8.93;3.35;;;34.40;54.70;;;;;;5020530;28;20218;-76
2022/08/12 12:07:23;;;;;;;5.93;2.80;;;34.40;54.30;;;;;;5018717;28;20637;-76
2022/08/12 12:10:11;;;;;;;6.32;3.25;;;34.60;54.60;;;;;;5021989;28;20207;-78
2022/08/12 12:12:39;;;;;;;3.00;2.70;;;34.60;53.80;;;;;;5017230;28;20832;-78
2022/08/12 12:15:15;;;;;;;4.85;2.60;;;34.60;53.10;;;;;;5024533;28;20209;-78
2022/08/12 12:17:52;;;;;;;3.00;2.70;;;34.60;53.50;;;;;;5018994;28;20230;-78
2022/08/12 12:20:21;;;;;;;3.42;2.75;;;34.70;54.10;;;;;;5021468;28;20612;-77
2022/08/12 12:22:56;;;;;;;5.15;2.70;;;34.70;52.90;;;;;;5020151;28;20206;-77
2022/08/12 12:25:23;;;;;;;4.53;2.53;;;34.70;52.80;;;;;;5018721;28;20259;-78
2022/08/12 12:28:10;;;;;;;5.00;2.65;;;34.80;53.60;;;;;;5022766;28;20299;-78
2022/08/12 12:30:56;;;;;;;3.80;2.70;;;34.80;54.00;;;;;;5024141;28;20559;-78
2022/08/12 12:33:25;;;;;;;4.13;2.90;;;35.00;55.00;;;;;;5019925;28;20583;-77
2022/08/12 12:36:12;;;;;;;3.45;2.67;;;35.10;52.50;;;;;;5019113;28;20210;-77
2022/08/12 12:38:50;;;;;;;3.83;2.97;;;35.10;51.90;;;;;;5016401;28;20260;-77
2022/08/12 12:41:17;;;;;;;5.32;3.20;;;35.10;51.80;;;;;;5038206;28;20198;-76
2022/08/12 12:43:44;;;;;;;4.25;2.97;;;35.10;51.80;;;;;;5026835;28;20623;-78
2022/08/12 12:46:29;;;;;;;3.85;2.90;;;35.10;51.50;;;;;;5027621;28;20209;-77
2022/08/12 12:48:56;;;;;;;4.28;2.95;;;35.10;51.20;;;;;;5018925;28;20319;-77
2022/08/12 12:51:23;;;;;;;3.65;2.70;;;35.20;52.50;;;;;;5017302;28;20207;-78
2022/08/12 12:54:10;;;;;;;3.05;2.75;;;35.20;52.10;;;;;;5019466;28;20226;-78
2022/08/12 12:56:41;;;;;;;3.95;2.78;;;35.30;51.60;;;;;;5019121;28;20736;-79
2022/08/12 12:59:09;;;;;;;3.65;3.00;;;35.20;52.10;;;;;;5026693;28;20309;-78
2022/08/12 13:01:58;;;;;;;4.53;2.88;;;35.20;51.70;;;;;;5023047;28;20206;-78
2022/08/12 13:04:25;;;;;;;5.30;2.88;;;35.20;51.70;;;;;;5018425;28;20237;-80
2022/08/12 13:06:52;;;;;;;6.07;3.03;;;35.20;52.20;;;;;;5024859;28;20273;-77
2022/08/12 13:09:19;;;;;;;5.22;3.10;;;35.20;53.80;;;;;;5017813;28;20251;-77
2022/08/12 13:11:49;;;;;;;3.05;2.75;;;35.20;52.90;;;;;;5024937;28;20836;-79
2022/08/12 13:14:20;;;;;;;5.05;3.00;;;35.30;53.90;;;;;;5019974;28;20230;-80
2022/08/12 13:17:02;;;;;;;6.07;3.17;;;35.40;53.40;;;;;;5016466;28;20222;-75
2022/08/12 13:19:35;;;;;;;4.15;2.80;;;35.50;53.10;;;;;;5018688;28;20255;-76
2022/08/12 13:22:16;;;;;;;4.32;3.17;;;35.60;52.40;;;;;;5017823;28;20218;-76
2022/08/12 13:24:51;;;;;;;5.80;2.60;;;35.60;51.60;;;;;;5023923;28;20305;-78
2022/08/12 13:27:25;;;;;;;5.13;3.10;;;35.50;51.30;;;;;;5016514;28;20586;-78
2022/08/12 13:29:57;;;;;;;3.22;2.92;;;35.40;51.30;;;;;;5019227;28;20576;-77
2022/08/12 13:32:29;;;;;;;5.65;2.60;;;35.20;52.00;;;;;;5018433;28;20261;-77
2022/08/12 13:34:58;;;;;;;14.52;3.70;;;35.30;52.40;;;;;;5016076;28;20667;-78
2022/08/12 13:37:30;;;;;;;2.92;2.70;;;35.30;51.40;;;;;;5019286;28;20201;-77
2022/08/12 13:40:17;;;;;;;3.60;3.03;;;35.20;51.10;;;;;;5015502;28;20210;-78
2022/08/12 13:42:45;;;;;;;6.38;2.97;;;35.30;51.00;;;;;;5018961;28;20264;-76
2022/08/12 13:45:12;;;;;;;3.97;2.70;;;35.20;50.80;;;;;;5018953;28;20321;-77
2022/08/12 13:47:55;;;;;;;4.80;2.70;;;35.10;50.90;;;;;;5013266;28;20641;-79
2022/08/12 13:50:23;;;;;;;4.40;3.00;;;35.00;50.70;;;;;;5016882;28;20214;-78
2022/08/12 13:52:53;;;;;;;4.70;3.17;;;35.00;52.00;;;;;;5018628;28;20259;-76
2022/08/12 13:55:24;;;;;;;5.50;2.70;;;35.00;51.60;;;;;;5016453;28;20242;-77
2022/08/12 13:57:57;;;;;;;3.15;2.92;;;35.00;50.90;;;;;;5017049;28;20233;-76
2022/08/12 14:00:26;;;;;;;6.28;3.25;;;35.00;51.80;;;;;;5019152;28;20209;-77
2022/08/12 14:03:05;;;;;;;3.25;2.90;;;35.00;50.90;;;;;;5018785;28;20732;-76
2022/08/12 14:05:32;;;;;;;3.92;3.00;;;34.90;51.30;;;;;;5016259;28;20238;-77
2022/08/12 14:08:06;;;;;;;3.53;2.53;;;34.80;51.10;;;;;;5017302;28;20297;-76
2022/08/12 14:10:38;;;;;;;4.70;2.85;;;35.00;50.90;;;;;;5018400;28;20611;-75
2022/08/12 14:13:22;;;;;;;5.28;3.22;;;35.00;50.60;;;;;;5017030;28;20218;-78
2022/08/12 14:16:14;;;;;;;4.03;2.92;;;35.00;50.60;;;;;;5017481;28;20760;-78
2022/08/12 14:19:00;;;;;;;4.88;2.70;;;35.00;50.50;;;;;;5016083;28;20237;-78
2022/08/12 14:21:31;;;;;;;4.22;3.05;;;35.00;50.20;;;;;;5018770;28;20222;-75
2022/08/12 14:24:18;;;;;;;5.95;3.15;;;35.00;50.20;;;;;;5019090;28;20281;-75
2022/08/12 14:26:53;;;;;;;4.60;3.20;;;35.10;50.30;;;;;;5014706;28;20252;-76
2022/08/12 14:29:20;;;;;;;5.97;2.70;;;35.10;50.70;;;;;;5014591;28;20288;-74
2022/08/12 14:32:07;;;;;;;4.25;2.70;;;35.00;50.50;;;;;;5020155;28;20361;-76
2022/08/12 14:34:43;;;;;;;4.50;3.03;;;34.90;50.50;;;;;;5025625;28;20205;-76
2022/08/12 14:37:10;;;;;;;3.10;2.80;;;34.90;51.10;;;;;;5018712;28;20265;-75
2022/08/12 14:39:57;;;;;;;5.30;3.03;;;35.00;51.30;;;;;;5023420;28;20698;-75
2022/08/12 14:42:24;;;;;;;3.70;2.97;;;34.90;50.90;;;;;;5023906;28;20748;-75
2022/08/12 14:44:51;;;;;;;5.07;2.92;;;34.80;50.60;;;;;;5025434;28;20291;-75
2022/08/12 14:47:27;;;;;;;3.63;2.90;;;34.60;50.50;;;;;;5025373;28;20236;-75
2022/08/12 14:49:55;;;;;;;3.35;2.80;;;34.40;50.30;;;;;;5032742;28;20224;-75
2022/08/12 14:52:42;;;;;;;3.40;2.85;;;34.40;50.70;;;;;;5038966;28;20646;-75
2022/08/12 14:55:32;;;;;;;4.40;3.05;;;34.30;51.40;;;;;;5045745;28;20300;-76
2022/08/12 14:58:19;;;;;;;3.88;2.90;;;34.40;51.80;;;;;;5049129;28;20329;-76
2022/08/12 15:03:34;;;;;;;3.13;2.83;;;34.60;51.10;;;;;;5042424;28;20224;-76
2022/08/12 15:06:21;;;;;;;5.53;2.78;;;34.70;51.30;;;;;;5041003;28;20671;-76
2022/08/12 15:09:08;;;;;;;4.82;3.40;;;34.80;52.00;;;;;;5028397;28;20201;-76
2022/08/12 15:11:40;;;;;;;4.35;2.92;;;34.90;51.90;;;;;;5039482;28;20673;-78